createdAt,value
2016-05-14T00:00:22.983Z,0
2016-05-14T00:01:22.814Z,0
2016-05-14T00:02:22.958Z,0
2016-05-14T00:03:22.960Z,0
2016-05-14T00:04:22.792Z,0
2016-05-14T00:05:22.934Z,0
2016-05-14T00:06:22.906Z,0
2016-05-14T00:07:22.737Z,0
2016-05-14T00:08:22.568Z,0
2016-05-14T00:09:22.882Z,0
2016-05-14T00:10:22.713Z,0
2016-05-14T00:11:22.841Z,0
2016-05-14T00:12:22.829Z,0
2016-05-14T00:13:22.504Z,0
2016-05-14T00:14:22.802Z,0
2016-05-14T00:15:22.649Z,0
2016-05-14T00:16:22.636Z,0
2016-05-14T00:17:22.624Z,0
2016-05-14T00:18:22.767Z,0
2016-05-14T00:19:22.754Z,0
2016-05-14T00:20:22.582Z,0
2016-05-14T00:21:22.553Z,0
2016-05-14T00:22:22.712Z,0
2016-05-14T00:23:22.684Z,0
2016-05-14T00:24:22.687Z,0
2016-05-14T00:25:22.689Z,0
2016-05-14T00:26:22.660Z,0
2016-05-14T00:27:22.678Z,0
2016-05-14T00:28:22.634Z,0
2016-05-14T00:29:22.622Z,0
2016-05-14T00:30:22.608Z,0
2016-05-14T00:31:22.580Z,0
2016-05-14T00:32:22.583Z,0
2016-05-14T00:33:22.648Z,0
2016-05-14T00:34:22.416Z,0
2016-05-14T00:35:22.543Z,0
2016-05-14T00:36:22.375Z,0
2016-05-14T00:37:22.502Z,0
2016-05-14T00:38:22.177Z,0
2016-05-14T00:39:22.352Z,0
2016-05-14T00:40:22.323Z,0
2016-05-14T00:41:22.310Z,0
2016-05-14T00:42:22.297Z,0
2016-05-14T00:43:22.440Z,0
2016-05-14T00:44:22.271Z,0
2016-05-14T00:45:22.414Z,0
2016-05-14T00:46:22.402Z,0
2016-05-14T00:47:22.233Z,0
2016-05-14T00:48:22.126Z,0
2016-05-14T00:49:22.066Z,0
2016-05-14T00:50:22.365Z,0
2016-05-14T00:51:22.337Z,0
2016-05-14T00:52:22.183Z,0
2016-05-14T00:53:22.186Z,0
2016-05-14T00:54:22.298Z,0
2016-05-14T00:55:22.129Z,0
2016-05-14T00:56:21.960Z,0
2016-05-14T00:57:22.103Z,0
2016-05-14T00:58:22.246Z,0
2016-05-14T00:59:22.233Z,0
2016-05-14T01:00:22.095Z,0
2016-05-14T01:01:22.208Z,0
2016-05-14T01:02:22.039Z,0
2016-05-14T01:03:22.056Z,0
2016-05-14T01:04:22.184Z,0
2016-05-14T01:05:22.140Z,0
2016-05-14T01:06:21.971Z,0
2016-05-14T01:07:21.974Z,0
2016-05-14T01:08:22.117Z,0
2016-05-14T01:09:21.964Z,0
2016-05-14T01:10:22.091Z,0
2016-05-14T01:11:22.078Z,0
2016-05-14T01:12:22.127Z,0
2016-05-14T01:13:22.068Z,0
2016-05-14T01:14:21.883Z,0
2016-05-14T01:15:21.885Z,0
2016-05-14T01:16:22.030Z,0
2016-05-14T01:17:22.001Z,0
2016-05-14T01:18:22.315Z,0
2016-05-14T01:19:21.975Z,0
2016-05-14T01:20:21.962Z,0
2016-05-14T01:21:21.948Z,0
2016-05-14T01:22:21.936Z,0
2016-05-14T01:23:21.923Z,0
2016-05-14T01:24:21.895Z,0
2016-05-14T01:25:21.881Z,0
2016-05-14T01:26:21.884Z,0
2016-05-14T01:27:21.965Z,0
2016-05-14T01:28:21.842Z,0
2016-05-14T01:29:21.533Z,0
2016-05-14T01:30:21.833Z,0
2016-05-14T01:31:21.789Z,0
2016-05-14T01:32:21.776Z,0
2016-05-14T01:33:22.200Z,0
2016-05-14T01:34:21.750Z,0
2016-05-14T01:35:21.737Z,0
2016-05-14T01:36:21.724Z,0
2016-05-14T01:37:21.710Z,0
2016-05-14T01:38:21.697Z,0
2016-05-14T01:39:27.953Z,0
2016-05-14T01:40:21.531Z,0
2016-05-14T01:41:21.658Z,0
2016-05-14T01:42:21.647Z,0
2016-05-14T01:43:21.476Z,0
2016-05-14T01:44:21.463Z,0
2016-05-14T01:45:21.623Z,0
2016-05-14T01:46:21.594Z,0
2016-05-14T01:47:21.582Z,0
2016-05-14T01:48:21.927Z,0
2016-05-14T01:49:21.805Z,0
2016-05-14T01:50:21.542Z,0
2016-05-14T01:51:21.515Z,0
2016-05-14T01:52:21.517Z,0
2016-05-14T01:53:21.504Z,0
2016-05-14T01:54:21.490Z,0
2016-05-14T01:55:21.306Z,0
2016-05-14T01:56:21.309Z,0
2016-05-14T01:57:21.451Z,0
2016-05-14T01:58:21.299Z,0
2016-05-14T01:59:21.270Z,0
2016-05-14T02:00:21.242Z,0
2016-05-14T02:01:21.400Z,0
2016-05-14T02:02:21.387Z,0
2016-05-14T02:03:21.765Z,0
2016-05-14T02:04:21.377Z,0
2016-05-14T02:05:21.411Z,0
2016-05-14T02:06:21.319Z,0
2016-05-14T02:07:21.307Z,0
2016-05-14T02:08:21.341Z,0
2016-05-14T02:09:21.297Z,0
2016-05-14T02:10:21.284Z,0
2016-05-14T02:11:21.255Z,0
2016-05-14T02:12:21.102Z,0
2016-05-14T02:13:21.244Z,0
2016-05-14T02:14:21.232Z,0
2016-05-14T02:15:21.204Z,0
2016-05-14T02:16:21.191Z,0
2016-05-14T02:17:20.881Z,0
2016-05-14T02:18:21.555Z,0
2016-05-14T02:19:20.996Z,0
2016-05-14T02:20:21.138Z,0
2016-05-14T02:21:21.126Z,0
2016-05-14T02:22:20.957Z,0
2016-05-14T02:23:21.162Z,0
2016-05-14T02:24:21.712Z,0
2016-05-14T02:25:20.777Z,0
2016-05-14T02:26:21.062Z,0
2016-05-14T02:27:21.048Z,0
2016-05-14T02:28:21.050Z,0
2016-05-14T02:29:21.038Z,0
2016-05-14T02:30:21.026Z,0
2016-05-14T02:31:20.997Z,0
2016-05-14T02:32:20.859Z,0
2016-05-14T02:33:21.018Z,0
2016-05-14T02:34:20.801Z,0
2016-05-14T02:35:20.789Z,0
2016-05-14T02:36:20.619Z,0
2016-05-14T02:37:20.778Z,0
2016-05-14T02:38:20.812Z,0
2016-05-14T02:39:20.644Z,0
2016-05-14T02:40:20.678Z,0
2016-05-14T02:41:20.711Z,0
2016-05-14T02:42:20.854Z,0
2016-05-14T02:43:20.825Z,0
2016-05-14T02:44:20.657Z,0
2016-05-14T02:45:20.769Z,0
2016-05-14T02:46:20.849Z,0
2016-05-14T02:47:20.790Z,0
2016-05-14T02:48:21.668Z,0
2016-05-14T02:49:20.763Z,0
2016-05-14T02:50:20.594Z,0
2016-05-14T02:51:20.721Z,0
2016-05-14T02:52:20.568Z,0
2016-05-14T02:53:20.557Z,0
2016-05-14T02:54:20.683Z,0
2016-05-14T02:55:20.529Z,0
2016-05-14T02:56:20.657Z,0
2016-05-14T02:57:20.645Z,0
2016-05-14T02:58:20.632Z,0
2016-05-14T02:59:20.462Z,0
2016-05-14T03:00:20.450Z,0
2016-05-14T03:01:20.592Z,0
2016-05-14T03:02:20.580Z,0
2016-05-14T03:03:20.598Z,0
2016-05-14T03:04:20.554Z,0
2016-05-14T03:05:20.384Z,0
2016-05-14T03:06:20.372Z,0
2016-05-14T03:07:20.515Z,0
2016-05-14T03:08:20.502Z,0
2016-05-14T03:09:20.474Z,0
2016-05-14T03:10:20.320Z,0
2016-05-14T03:11:20.307Z,0
2016-05-14T03:12:20.294Z,0
2016-05-14T03:13:20.422Z,0
2016-05-14T03:14:20.472Z,0
2016-05-14T03:15:20.396Z,0
2016-05-14T03:16:20.383Z,0
2016-05-14T03:17:20.214Z,0
2016-05-14T03:18:20.216Z,0
2016-05-14T03:19:20.360Z,0
2016-05-14T03:20:20.331Z,0
2016-05-14T03:21:20.318Z,0
2016-05-14T03:22:20.149Z,0
2016-05-14T03:23:20.293Z,0
2016-05-14T03:24:20.280Z,0
2016-05-14T03:25:20.267Z,0
2016-05-14T03:26:20.098Z,0
2016-05-14T03:27:20.084Z,0
2016-05-14T03:28:20.228Z,0
2016-05-14T03:29:20.059Z,0
2016-05-14T03:30:20.045Z,0
2016-05-14T03:31:20.190Z,0
2016-05-14T03:32:20.161Z,0
2016-05-14T03:33:20.210Z,0
2016-05-14T03:34:19.994Z,0
2016-05-14T03:35:19.965Z,0
2016-05-14T03:36:19.968Z,0
2016-05-14T03:37:19.955Z,0
2016-05-14T03:38:20.083Z,0
2016-05-14T03:39:19.930Z,0
2016-05-14T03:40:19.917Z,0
2016-05-14T03:41:20.044Z,0
2016-05-14T03:42:20.047Z,0
2016-05-14T03:43:19.878Z,0
2016-05-14T03:44:20.036Z,5
2016-05-14T03:45:19.852Z,5
2016-05-14T03:46:19.979Z,5
2016-05-14T03:47:19.654Z,10
2016-05-14T03:48:20.329Z,10
2016-05-14T03:49:19.940Z,15
2016-05-14T03:50:19.927Z,15
2016-05-14T03:51:19.915Z,20
2016-05-14T03:52:19.746Z,20
2016-05-14T03:53:19.888Z,25
2016-05-14T03:54:19.860Z,25
2016-05-14T03:55:19.691Z,30
2016-05-14T03:56:19.693Z,35
2016-05-14T03:57:19.682Z,40
2016-05-14T03:58:19.823Z,45
2016-05-14T03:59:19.498Z,45
2016-05-14T04:00:19.643Z,45
2016-05-14T04:01:19.770Z,50
2016-05-14T04:02:19.617Z,50
2016-05-14T04:03:20.150Z,50
2016-05-14T04:04:19.747Z,55
2016-05-14T04:05:19.796Z,55
2016-05-14T04:06:19.720Z,60
2016-05-14T04:07:19.692Z,60
2016-05-14T04:08:19.679Z,65
2016-05-14T04:09:19.526Z,70
2016-05-14T04:10:19.670Z,75
2016-05-14T04:11:19.641Z,80
2016-05-14T04:12:19.628Z,85
2016-05-14T04:13:19.474Z,85
2016-05-14T04:14:19.445Z,90
2016-05-14T04:15:19.432Z,90
2016-05-14T04:16:19.419Z,90
2016-05-14T04:17:19.578Z,95
2016-05-14T04:18:19.831Z,95
2016-05-14T04:19:19.380Z,100
2016-05-14T04:20:19.561Z,105
2016-05-14T04:21:19.404Z,110
2016-05-14T04:22:19.590Z,115
2016-05-14T04:23:19.620Z,120
2016-05-14T04:24:19.493Z,125
2016-05-14T04:25:19.676Z,130
2016-05-14T04:26:19.523Z,130
2016-05-14T04:27:19.665Z,135
2016-05-14T04:28:19.528Z,140
2016-05-14T04:29:19.671Z,150
2016-05-14T04:30:19.687Z,155
2016-05-14T04:31:19.508Z,165
2016-05-14T04:32:19.516Z,170
2016-05-14T04:33:19.681Z,175
2016-05-14T04:34:19.658Z,180
2016-05-14T04:35:19.651Z,175
2016-05-14T04:36:19.640Z,175
2016-05-14T04:37:19.629Z,185
2016-05-14T04:38:19.602Z,190
2016-05-14T04:39:19.591Z,205
2016-05-14T04:40:19.595Z,215
2016-05-14T04:41:19.568Z,230
2016-05-14T04:42:19.571Z,240
2016-05-14T04:43:19.560Z,245
2016-05-14T04:44:19.547Z,240
2016-05-14T04:45:19.535Z,225
2016-05-14T04:46:19.365Z,215
2016-05-14T04:47:19.510Z,210
2016-05-14T04:48:19.575Z,225
2016-05-14T04:49:19.485Z,245
2016-05-14T04:50:19.316Z,255
2016-05-14T04:51:19.318Z,265
2016-05-14T04:52:19.274Z,270
2016-05-14T04:53:19.417Z,275
2016-05-14T04:54:19.107Z,280
2016-05-14T04:55:19.391Z,275
2016-05-14T04:56:19.238Z,270
2016-05-14T04:57:19.366Z,255
2016-05-14T04:58:19.368Z,255
2016-05-14T04:59:19.356Z,255
2016-05-14T05:00:19.326Z,250
2016-05-14T05:01:19.314Z,260
2016-05-14T05:02:19.332Z,280
2016-05-14T05:03:19.303Z,305
2016-05-14T05:04:19.323Z,330
2016-05-14T05:05:19.122Z,330
2016-05-14T05:06:19.109Z,330
2016-05-14T05:07:19.284Z,330
2016-05-14T05:08:19.239Z,345
2016-05-14T05:09:19.226Z,370
2016-05-14T05:10:19.213Z,375
2016-05-14T05:11:19.200Z,355
2016-05-14T05:12:19.187Z,330
2016-05-14T05:13:19.175Z,305
2016-05-14T05:14:19.162Z,365
2016-05-14T05:15:19.164Z,350
2016-05-14T05:16:18.995Z,270
2016-05-14T05:17:18.982Z,250
2016-05-14T05:18:19.438Z,230
2016-05-14T05:19:18.955Z,215
2016-05-14T05:20:19.100Z,195
2016-05-14T05:21:18.930Z,185
2016-05-14T05:22:18.761Z,180
2016-05-14T05:23:19.280Z,180
2016-05-14T05:24:18.735Z,185
2016-05-14T05:25:19.051Z,205
2016-05-14T05:26:19.021Z,230
2016-05-14T05:27:18.696Z,255
2016-05-14T05:28:18.996Z,270
2016-05-14T05:29:18.827Z,290
2016-05-14T05:30:18.814Z,310
2016-05-14T05:31:18.801Z,340
2016-05-14T05:32:18.663Z,360
2016-05-14T05:33:18.790Z,370
2016-05-14T05:34:19.434Z,365
2016-05-14T05:35:18.749Z,355
2016-05-14T05:36:18.892Z,350
2016-05-14T05:37:18.739Z,355
2016-05-14T05:38:18.726Z,375
2016-05-14T05:39:18.697Z,410
2016-05-14T05:40:18.856Z,440
2016-05-14T05:41:18.843Z,405
2016-05-14T05:42:18.830Z,330
2016-05-14T05:43:18.818Z,275
2016-05-14T05:44:18.836Z,260
2016-05-14T05:45:18.808Z,285
2016-05-14T05:46:18.794Z,320
2016-05-14T05:47:18.781Z,335
2016-05-14T05:48:18.456Z,345
2016-05-14T05:49:18.740Z,365
2016-05-14T05:50:18.571Z,385
2016-05-14T05:51:18.573Z,390
2016-05-14T05:52:18.702Z,375
2016-05-14T05:53:18.705Z,385
2016-05-14T05:54:18.675Z,410
2016-05-14T05:55:18.678Z,425
2016-05-14T05:56:18.665Z,430
2016-05-14T05:57:18.496Z,435
2016-05-14T05:58:18.468Z,440
2016-05-14T05:59:18.610Z,420
2016-05-14T06:00:18.598Z,390
2016-05-14T06:01:18.600Z,355
2016-05-14T06:02:18.572Z,360
2016-05-14T06:03:18.637Z,380
2016-05-14T06:04:18.609Z,430
2016-05-14T06:05:18.393Z,480
2016-05-14T06:06:18.551Z,495
2016-05-14T06:07:18.539Z,490
2016-05-14T06:08:18.354Z,475
2016-05-14T06:09:18.481Z,470
2016-05-14T06:10:18.328Z,470
2016-05-14T06:11:18.470Z,470
2016-05-14T06:12:18.458Z,480
2016-05-14T06:13:18.461Z,490
2016-05-14T06:14:18.433Z,500
2016-05-14T06:15:18.420Z,510
2016-05-14T06:16:18.422Z,510
2016-05-14T06:17:18.269Z,510
2016-05-14T06:18:18.099Z,510
2016-05-14T06:19:18.399Z,510
2016-05-14T06:20:18.369Z,515
2016-05-14T06:21:18.357Z,525
2016-05-14T06:22:18.360Z,530
2016-05-14T06:23:18.175Z,535
2016-05-14T06:24:18.319Z,545
2016-05-14T06:25:18.305Z,575
2016-05-14T06:26:18.152Z,595
2016-05-14T06:27:18.295Z,610
2016-05-14T06:28:18.282Z,620
2016-05-14T06:29:18.113Z,640
2016-05-14T06:30:17.959Z,665
2016-05-14T06:31:18.087Z,700
2016-05-14T06:32:18.231Z,705
2016-05-14T06:33:18.249Z,700
2016-05-14T06:34:18.080Z,690
2016-05-14T06:35:18.035Z,685
2016-05-14T06:36:18.195Z,675
2016-05-14T06:37:18.025Z,675
2016-05-14T06:38:18.168Z,675
2016-05-14T06:39:18.156Z,690
2016-05-14T06:40:17.986Z,700
2016-05-14T06:41:17.973Z,715
2016-05-14T06:42:18.132Z,730
2016-05-14T06:43:17.963Z,755
2016-05-14T06:44:18.107Z,780
2016-05-14T06:45:17.781Z,820
2016-05-14T06:46:17.769Z,840
2016-05-14T06:47:18.099Z,865
2016-05-14T06:48:18.133Z,870
2016-05-14T06:49:17.777Z,890
2016-05-14T06:50:17.904Z,900
2016-05-14T06:51:18.032Z,925
2016-05-14T06:52:18.034Z,1190
2016-05-14T06:53:18.006Z,945
2016-05-14T06:54:17.837Z,950
2016-05-14T06:55:17.824Z,980
2016-05-14T06:56:17.842Z,920
2016-05-14T06:57:17.969Z,895
2016-05-14T06:58:17.957Z,920
2016-05-14T06:59:17.647Z,990
2016-05-14T07:00:17.946Z,1070
2016-05-14T07:01:17.777Z,1095
2016-05-14T07:02:17.764Z,1135
2016-05-14T07:03:18.548Z,1065
2016-05-14T07:04:17.910Z,980
2016-05-14T07:05:17.912Z,910
2016-05-14T07:06:17.901Z,870
2016-05-14T07:07:17.887Z,850
2016-05-14T07:08:17.874Z,845
2016-05-14T07:09:17.862Z,850
2016-05-14T07:10:17.848Z,835
2016-05-14T07:11:17.851Z,825
2016-05-14T07:12:17.838Z,825
2016-05-14T07:13:17.841Z,845
2016-05-14T07:14:17.484Z,825
2016-05-14T07:15:17.800Z,835
2016-05-14T07:16:17.646Z,860
2016-05-14T07:17:17.648Z,895
2016-05-14T07:18:17.636Z,905
2016-05-14T07:19:17.983Z,875
2016-05-14T07:20:17.625Z,830
2016-05-14T07:21:17.738Z,810
2016-05-14T07:22:17.755Z,790
2016-05-14T07:23:17.727Z,780
2016-05-14T07:24:17.558Z,775
2016-05-14T07:25:17.545Z,790
2016-05-14T07:26:17.533Z,785
2016-05-14T07:27:17.690Z,780
2016-05-14T07:28:17.382Z,785
2016-05-14T07:29:17.666Z,815
2016-05-14T07:30:17.652Z,840
2016-05-14T07:31:17.640Z,865
2016-05-14T07:32:17.501Z,925
2016-05-14T07:33:17.832Z,1020
2016-05-14T07:34:17.726Z,1125
2016-05-14T07:35:17.462Z,1210
2016-05-14T07:36:17.449Z,1195
2016-05-14T07:37:17.593Z,1445
2016-05-14T07:38:17.580Z,1050
2016-05-14T07:39:17.568Z,1055
2016-05-14T07:40:17.570Z,1090
2016-05-14T07:41:17.542Z,980
2016-05-14T07:42:17.387Z,995
2016-05-14T07:43:17.374Z,1035
2016-05-14T07:44:17.534Z,1070
2016-05-14T07:45:17.364Z,1130
2016-05-14T07:46:17.523Z,1120
2016-05-14T07:47:17.495Z,1085
2016-05-14T07:48:18.279Z,1045
2016-05-14T07:49:18.501Z,1020
2016-05-14T07:50:17.472Z,985
2016-05-14T07:51:17.303Z,950
2016-05-14T07:52:17.149Z,890
2016-05-14T07:53:17.464Z,840
2016-05-14T07:54:17.436Z,795
2016-05-14T07:55:17.422Z,770
2016-05-14T07:56:17.410Z,735
2016-05-14T07:57:17.256Z,695
2016-05-14T07:58:17.399Z,655
2016-05-14T07:59:17.402Z,625
2016-05-14T08:00:17.233Z,585
2016-05-14T08:01:17.377Z,550
2016-05-14T08:02:17.207Z,520
2016-05-14T08:03:17.351Z,510
2016-05-14T08:04:17.197Z,490
2016-05-14T08:05:17.168Z,470
2016-05-14T08:06:17.343Z,445
2016-05-14T08:07:17.314Z,440
2016-05-14T08:08:17.285Z,445
2016-05-14T08:09:17.288Z,450
2016-05-14T08:10:17.120Z,455
2016-05-14T08:11:16.951Z,455
2016-05-14T08:12:17.250Z,460
2016-05-14T08:13:17.095Z,475
2016-05-14T08:14:17.239Z,530
2016-05-14T08:15:17.070Z,600
2016-05-14T08:16:17.057Z,650
2016-05-14T08:17:17.200Z,715
2016-05-14T08:18:17.937Z,775
2016-05-14T08:19:17.222Z,850
2016-05-14T08:20:17.021Z,915
2016-05-14T08:21:17.195Z,985
2016-05-14T08:22:16.995Z,1040
2016-05-14T08:23:17.155Z,1090
2016-05-14T08:24:16.969Z,1145
2016-05-14T08:25:16.816Z,1110
2016-05-14T08:26:16.944Z,1075
2016-05-14T08:27:17.102Z,1025
2016-05-14T08:28:17.089Z,965
2016-05-14T08:29:17.091Z,875
2016-05-14T08:30:17.094Z,780
2016-05-14T08:31:17.051Z,670
2016-05-14T08:32:17.054Z,580
2016-05-14T08:33:16.900Z,525
2016-05-14T08:34:17.122Z,495
2016-05-14T08:35:16.718Z,495
2016-05-14T08:36:16.861Z,520
2016-05-14T08:37:17.004Z,560
2016-05-14T08:38:16.991Z,635
2016-05-14T08:39:16.823Z,750
2016-05-14T08:40:16.965Z,855
2016-05-14T08:41:16.953Z,975
2016-05-14T08:42:16.940Z,1080
2016-05-14T08:43:16.942Z,1155
2016-05-14T08:44:16.929Z,1185
2016-05-14T08:45:16.776Z,1195
2016-05-14T08:46:16.763Z,1215
2016-05-14T08:47:16.734Z,1245
2016-05-14T08:48:16.784Z,1275
2016-05-14T08:49:17.006Z,1325
2016-05-14T08:50:16.711Z,1420
2016-05-14T08:51:16.886Z,1570
2016-05-14T08:52:16.841Z,1755
2016-05-14T08:53:16.516Z,2015
2016-05-14T08:54:16.847Z,3190
2016-05-14T08:55:16.819Z,2565
2016-05-14T08:56:16.821Z,2265
2016-05-14T08:57:16.636Z,2125
2016-05-14T08:58:16.795Z,2260
2016-05-14T08:59:16.783Z,2165
2016-05-14T09:00:16.472Z,2455
2016-05-14T09:01:16.757Z,2825
2016-05-14T09:02:16.759Z,2275
2016-05-14T09:03:16.762Z,4000
2016-05-14T09:04:16.311Z,2135
2016-05-14T09:05:16.751Z,2365
2016-05-14T09:06:16.426Z,2365
2016-05-14T09:07:16.584Z,3880
2016-05-14T09:08:16.588Z,2145
2016-05-14T09:09:16.732Z,3450
2016-05-14T09:10:16.718Z,1830
2016-05-14T09:11:16.565Z,3495
2016-05-14T09:12:16.739Z,4275
2016-05-14T09:13:16.726Z,3625
2016-05-14T09:14:16.557Z,2095
2016-05-14T09:15:16.575Z,3860
2016-05-14T09:16:16.703Z,2095
2016-05-14T09:17:16.705Z,1620
2016-05-14T09:18:16.692Z,1605
2016-05-14T09:19:17.352Z,1530
2016-05-14T09:20:16.541Z,1475
2016-05-14T09:21:16.701Z,1495
2016-05-14T09:22:16.688Z,1355
2016-05-14T09:23:16.691Z,1455
2016-05-14T09:24:16.678Z,2990
2016-05-14T09:25:16.914Z,2035
2016-05-14T09:26:16.511Z,3045
2016-05-14T09:27:16.669Z,3715
2016-05-14T09:28:16.657Z,2275
2016-05-14T09:29:16.660Z,2215
2016-05-14T09:30:16.646Z,1475
2016-05-14T09:31:16.650Z,1210
2016-05-14T09:32:16.496Z,1055
2016-05-14T09:33:16.983Z,985
2016-05-14T09:34:16.767Z,905
2016-05-14T09:35:16.473Z,815
2016-05-14T09:36:16.319Z,735
2016-05-14T09:37:16.634Z,665
2016-05-14T09:38:16.621Z,635
2016-05-14T09:39:16.609Z,630
2016-05-14T09:40:16.454Z,645
2016-05-14T09:41:16.614Z,700
2016-05-14T09:42:16.444Z,775
2016-05-14T09:43:16.587Z,875
2016-05-14T09:44:16.419Z,965
2016-05-14T09:45:16.421Z,1070
2016-05-14T09:46:16.565Z,1185
2016-05-14T09:47:16.395Z,1300
2016-05-14T09:48:16.570Z,1420
2016-05-14T09:49:17.495Z,1520
2016-05-14T09:50:16.372Z,1985
2016-05-14T09:51:16.531Z,1870
2016-05-14T09:52:16.378Z,1990
2016-05-14T09:53:16.505Z,1455
2016-05-14T09:54:16.492Z,1445
2016-05-14T09:55:16.495Z,1475
2016-05-14T09:56:16.498Z,1520
2016-05-14T09:57:16.485Z,1715
2016-05-14T09:58:16.488Z,1610
2016-05-14T09:59:16.459Z,1670
2016-05-14T10:00:16.477Z,1950
2016-05-14T10:01:16.308Z,2000
2016-05-14T10:02:16.436Z,2860
2016-05-14T10:03:16.454Z,2955
2016-05-14T10:04:16.754Z,1815
2016-05-14T10:05:16.429Z,1400
2016-05-14T10:06:16.259Z,1230
2016-05-14T10:07:16.434Z,1170
2016-05-14T10:08:16.405Z,1155
2016-05-14T10:09:16.408Z,1355
2016-05-14T10:10:16.083Z,4160
2016-05-14T10:11:16.381Z,4305
2016-05-14T10:12:16.229Z,4615
2016-05-14T10:13:16.247Z,4935
2016-05-14T10:14:16.374Z,2355
2016-05-14T10:15:16.221Z,2220
2016-05-14T10:16:16.223Z,1840
2016-05-14T10:17:16.211Z,1515
2016-05-14T10:18:16.339Z,1270
2016-05-14T10:19:16.809Z,1080
2016-05-14T10:20:16.344Z,955
2016-05-14T10:21:16.346Z,895
2016-05-14T10:22:16.349Z,870
2016-05-14T10:23:16.337Z,865
2016-05-14T10:24:16.355Z,915
2016-05-14T10:25:16.186Z,1005
2016-05-14T10:26:16.328Z,1105
2016-05-14T10:27:16.331Z,1230
2016-05-14T10:28:16.162Z,1375
2016-05-14T10:29:16.305Z,1570
2016-05-14T10:30:16.152Z,1825
2016-05-14T10:31:16.295Z,3650
2016-05-14T10:32:16.126Z,2155
2016-05-14T10:33:16.129Z,2230
2016-05-14T10:34:16.616Z,2135
2016-05-14T10:35:16.274Z,2270
2016-05-14T10:36:16.105Z,1995
2016-05-14T10:37:16.265Z,2145
2016-05-14T10:38:16.080Z,2990
2016-05-14T10:39:16.083Z,4950
2016-05-14T10:40:15.913Z,2035
2016-05-14T10:41:16.088Z,2040
2016-05-14T10:42:16.232Z,1795
2016-05-14T10:43:16.062Z,1650
2016-05-14T10:44:16.205Z,1585
2016-05-14T10:45:16.207Z,1505
2016-05-14T10:46:16.210Z,1390
2016-05-14T10:47:16.042Z,1365
2016-05-14T10:48:16.215Z,1395
2016-05-14T10:49:16.875Z,1805
2016-05-14T10:50:16.033Z,1515
2016-05-14T10:51:16.177Z,1515
2016-05-14T10:52:16.165Z,4550
2016-05-14T10:53:16.167Z,4840
2016-05-14T10:54:16.153Z,4955
2016-05-14T10:55:15.984Z,3530
2016-05-14T10:56:15.987Z,5210
2016-05-14T10:57:16.147Z,1950
2016-05-14T10:58:16.149Z,1790
2016-05-14T10:59:16.120Z,1755
2016-05-14T11:00:16.123Z,1555
2016-05-14T11:01:16.126Z,1465
2016-05-14T11:02:16.113Z,1435
2016-05-14T11:03:15.819Z,1445
2016-05-14T11:04:16.055Z,1400
2016-05-14T11:05:16.105Z,1260
2016-05-14T11:06:16.093Z,1170
2016-05-14T11:07:16.079Z,1155
2016-05-14T11:08:16.099Z,1210
2016-05-14T11:09:16.084Z,1305
2016-05-14T11:10:16.071Z,1420
2016-05-14T11:11:16.075Z,1545
2016-05-14T11:12:16.062Z,1650
2016-05-14T11:13:15.908Z,1790
2016-05-14T11:14:16.051Z,1750
2016-05-14T11:15:16.038Z,1720
2016-05-14T11:16:16.041Z,1675
2016-05-14T11:17:15.888Z,1615
2016-05-14T11:18:16.046Z,1570
2016-05-14T11:19:16.034Z,1515
2016-05-14T11:20:15.552Z,1470
2016-05-14T11:21:16.008Z,1435
2016-05-14T11:22:15.839Z,1445
2016-05-14T11:23:15.856Z,1495
2016-05-14T11:24:15.984Z,1590
2016-05-14T11:25:15.987Z,1710
2016-05-14T11:26:15.975Z,1865
2016-05-14T11:27:15.978Z,2030
2016-05-14T11:28:15.980Z,2430
2016-05-14T11:29:15.810Z,2095
2016-05-14T11:30:15.969Z,1995
2016-05-14T11:31:15.785Z,1895
2016-05-14T11:32:15.788Z,1765
2016-05-14T11:33:16.368Z,1650
2016-05-14T11:34:16.261Z,1625
2016-05-14T11:35:15.921Z,1645
2016-05-14T11:36:15.767Z,1715
2016-05-14T11:37:15.910Z,1825
2016-05-14T11:38:15.897Z,1925
2016-05-14T11:39:15.900Z,2210
2016-05-14T11:40:15.887Z,2300
2016-05-14T11:41:15.905Z,2355
2016-05-14T11:42:15.720Z,2140
2016-05-14T11:43:15.910Z,3655
2016-05-14T11:44:15.398Z,3060
2016-05-14T11:45:15.869Z,2215
2016-05-14T11:46:15.856Z,2280
2016-05-14T11:47:15.859Z,2140
2016-05-14T11:48:15.721Z,2025
2016-05-14T11:49:16.005Z,1980
2016-05-14T11:50:15.851Z,1855
2016-05-14T11:51:15.854Z,1730
2016-05-14T11:52:15.670Z,1635
2016-05-14T11:53:15.845Z,1590
2016-05-14T11:54:15.675Z,1590
2016-05-14T11:55:15.662Z,1645
2016-05-14T11:56:15.805Z,1710
2016-05-14T11:57:15.823Z,1740
2016-05-14T11:58:15.811Z,1785
2016-05-14T11:59:15.625Z,1885
2016-05-14T12:00:15.784Z,1890
2016-05-14T12:01:15.802Z,1865
2016-05-14T12:02:15.789Z,1820
2016-05-14T12:03:15.761Z,1810
2016-05-14T12:04:16.045Z,1775
2016-05-14T12:05:15.626Z,1745
2016-05-14T12:06:15.754Z,1760
2016-05-14T12:07:15.741Z,1435
2016-05-14T12:08:15.430Z,1335
2016-05-14T12:09:15.731Z,1245
2016-05-14T12:10:15.732Z,1200
2016-05-14T12:11:15.595Z,1235
2016-05-14T12:12:15.566Z,1310
2016-05-14T12:13:15.554Z,1435
2016-05-14T12:14:15.541Z,1600
2016-05-14T12:15:15.716Z,1755
2016-05-14T12:16:15.703Z,1945
2016-05-14T12:17:15.690Z,1910
2016-05-14T12:18:16.115Z,1865
2016-05-14T12:19:15.757Z,1790
2016-05-14T12:20:15.510Z,1685
2016-05-14T12:21:15.654Z,1570
2016-05-14T12:22:15.656Z,1460
2016-05-14T12:23:15.675Z,1350
2016-05-14T12:24:15.474Z,1250
2016-05-14T12:25:15.320Z,1140
2016-05-14T12:26:15.620Z,1055
2016-05-14T12:27:15.498Z,985
2016-05-14T12:28:15.156Z,945
2016-05-14T12:29:15.456Z,950
2016-05-14T12:30:15.600Z,995
2016-05-14T12:31:15.602Z,1105
2016-05-14T12:32:15.449Z,1265
2016-05-14T12:33:15.622Z,1415
2016-05-14T12:34:15.657Z,1575
2016-05-14T12:35:15.566Z,1835
2016-05-14T12:36:15.569Z,2180
2016-05-14T12:37:15.399Z,3085
2016-05-14T12:38:15.402Z,1925
2016-05-14T12:39:15.546Z,1860
2016-05-14T12:40:15.549Z,4090
2016-05-14T12:41:15.536Z,3315
2016-05-14T12:42:15.569Z,4065
2016-05-14T12:43:15.354Z,2665
2016-05-14T12:44:15.357Z,4135
2016-05-14T12:45:15.359Z,3185
2016-05-14T12:46:15.377Z,3530
2016-05-14T12:47:15.520Z,1535
2016-05-14T12:48:15.507Z,1625
2016-05-14T12:49:15.588Z,2515
2016-05-14T12:50:15.497Z,1460
2016-05-14T12:51:15.501Z,3545
2016-05-14T12:52:15.518Z,1400
2016-05-14T12:53:15.473Z,1410
2016-05-14T12:54:15.008Z,1470
2016-05-14T12:55:15.323Z,1795
2016-05-14T12:56:15.498Z,1755
2016-05-14T12:57:15.453Z,1550
2016-05-14T12:58:15.456Z,2885
2016-05-14T12:59:15.303Z,2555
2016-05-14T13:00:15.336Z,2110
2016-05-14T13:01:15.339Z,3095
2016-05-14T13:02:15.451Z,4100
2016-05-14T13:03:15.453Z,3950
2016-05-14T13:04:15.894Z,3965
2016-05-14T13:05:15.428Z,4070
2016-05-14T13:06:15.447Z,1685
2016-05-14T13:07:15.418Z,1590
2016-05-14T13:08:15.421Z,1565
2016-05-14T13:09:15.267Z,1505
2016-05-14T13:10:15.269Z,1435
2016-05-14T13:11:15.413Z,1315
2016-05-14T13:12:15.416Z,1170
2016-05-14T13:13:15.402Z,1040
2016-05-14T13:14:15.249Z,960
2016-05-14T13:15:15.080Z,915
2016-05-14T13:16:15.443Z,895
2016-05-14T13:17:15.382Z,905
2016-05-14T13:18:15.385Z,960
2016-05-14T13:19:15.763Z,1080
2016-05-14T13:20:15.374Z,1295
2016-05-14T13:21:16.096Z,2630
2016-05-14T13:22:15.365Z,1745
2016-05-14T13:23:15.226Z,3250
2016-05-14T13:24:15.182Z,3775
2016-05-14T13:25:15.342Z,4110
2016-05-14T13:26:15.357Z,2455
2016-05-14T13:27:15.398Z,1540
2016-05-14T13:28:15.408Z,1455
2016-05-14T13:29:15.465Z,2760
2016-05-14T13:30:15.491Z,2140
2016-05-14T13:31:15.352Z,2280
2016-05-14T13:32:15.527Z,3855
2016-05-14T13:33:15.527Z,3825
2016-05-14T13:34:15.341Z,3805
2016-05-14T13:35:15.389Z,3720
2016-05-14T13:36:15.559Z,3825
2016-05-14T13:37:15.552Z,3735
2016-05-14T13:38:15.387Z,1535
2016-05-14T13:39:15.551Z,1400
2016-05-14T13:40:15.559Z,1465
2016-05-14T13:41:15.550Z,1650
2016-05-14T13:42:15.555Z,3690
2016-05-14T13:43:15.544Z,2495
2016-05-14T13:44:15.392Z,1325
2016-05-14T13:45:15.537Z,1345
2016-05-14T13:46:15.385Z,1400
2016-05-14T13:47:15.388Z,1390
2016-05-14T13:48:15.392Z,1350
2016-05-14T13:49:16.583Z,1280
2016-05-14T13:50:15.523Z,1255
2016-05-14T13:51:15.215Z,1320
2016-05-14T13:52:15.514Z,3225